sensor_id;sensor_type;location;lat;lon;timestamp;P1;durP1;ratioP1;P2;durP2;ratioP2
57319;SDS011;43158;51.026;18.190;2023-05-07T00:02:08;45.10;;;40.30;;
57319;SDS011;43158;51.026;18.190;2023-05-07T00:04:35;47.00;;;42.10;;
57319;SDS011;43158;51.026;18.190;2023-05-07T00:07:03;45.50;;;41.00;;
57319;SDS011;43158;51.026;18.190;2023-05-07T00:09:30;56.70;;;45.30;;
57319;SDS011;43158;51.026;18.190;2023-05-07T00:11:56;44.90;;;40.20;;
57319;SDS011;43158;51.026;18.190;2023-05-07T00:14:23;53.30;;;48.10;;
57319;SDS011;43158;51.026;18.190;2023-05-07T00:16:51;50.40;;;45.10;;
57319;SDS011;43158;51.026;18.190;2023-05-07T00:19:19;51.70;;;45.80;;
57319;SDS011;43158;51.026;18.190;2023-05-07T00:21:46;48.20;;;43.60;;
57319;SDS011;43158;51.026;18.190;2023-05-07T00:24:14;52.40;;;47.10;;
57319;SDS011;43158;51.026;18.190;2023-05-07T00:26:41;48.70;;;43.60;;
57319;SDS011;43158;51.026;18.190;2023-05-07T00:29:08;49.90;;;45.00;;
57319;SDS011;43158;51.026;18.190;2023-05-07T00:31:35;46.70;;;41.90;;
57319;SDS011;43158;51.026;18.190;2023-05-07T00:34:02;43.90;;;39.40;;
57319;SDS011;43158;51.026;18.190;2023-05-07T00:36:29;47.50;;;42.70;;
57319;SDS011;43158;51.026;18.190;2023-05-07T00:38:56;45.60;;;40.60;;
57319;SDS011;43158;51.026;18.190;2023-05-07T00:41:22;42.80;;;38.40;;
57319;SDS011;43158;51.026;18.190;2023-05-07T00:43:48;41.70;;;37.70;;
57319;SDS011;43158;51.026;18.190;2023-05-07T00:46:17;40.20;;;36.30;;
57319;SDS011;43158;51.026;18.190;2023-05-07T00:48:44;42.90;;;38.70;;
57319;SDS011;43158;51.026;18.190;2023-05-07T00:51:11;42.70;;;38.30;;
57319;SDS011;43158;51.026;18.190;2023-05-07T00:53:37;40.20;;;36.00;;
57319;SDS011;43158;51.026;18.190;2023-05-07T00:56:03;38.80;;;33.60;;
57319;SDS011;43158;51.026;18.190;2023-05-07T00:58:32;35.10;;;31.40;;
57319;SDS011;43158;51.026;18.190;2023-05-07T01:00:59;37.20;;;33.30;;
57319;SDS011;43158;51.026;18.190;2023-05-07T01:03:26;34.30;;;30.90;;
57319;SDS011;43158;51.026;18.190;2023-05-07T01:05:52;38.90;;;35.00;;
57319;SDS011;43158;51.026;18.190;2023-05-07T01:08:20;36.30;;;33.20;;
57319;SDS011;43158;51.026;18.190;2023-05-07T01:10:46;37.90;;;34.10;;
57319;SDS011;43158;51.026;18.190;2023-05-07T01:13:13;42.20;;;37.60;;
57319;SDS011;43158;51.026;18.190;2023-05-07T01:15:40;46.50;;;41.70;;
57319;SDS011;43158;51.026;18.190;2023-05-07T01:18:07;43.70;;;39.20;;
57319;SDS011;43158;51.026;18.190;2023-05-07T01:20:33;45.60;;;41.00;;
57319;SDS011;43158;51.026;18.190;2023-05-07T01:23:00;42.20;;;37.80;;
57319;SDS011;43158;51.026;18.190;2023-05-07T01:25:27;42.50;;;38.10;;
57319;SDS011;43158;51.026;18.190;2023-05-07T01:27:53;45.90;;;41.00;;
57319;SDS011;43158;51.026;18.190;2023-05-07T01:30:20;45.20;;;40.50;;
57319;SDS011;43158;51.026;18.190;2023-05-07T01:32:59;45.40;;;39.80;;
57319;SDS011;43158;51.026;18.190;2023-05-07T01:35:29;44.10;;;39.60;;
57319;SDS011;43158;51.026;18.190;2023-05-07T01:37:58;41.00;;;37.00;;
57319;SDS011;43158;51.026;18.190;2023-05-07T01:40:25;38.90;;;34.80;;
57319;SDS011;43158;51.026;18.190;2023-05-07T01:42:51;42.60;;;38.50;;
57319;SDS011;43158;51.026;18.190;2023-05-07T01:45:18;39.80;;;35.80;;
57319;SDS011;43158;51.026;18.190;2023-05-07T01:47:44;41.30;;;37.30;;
57319;SDS011;43158;51.026;18.190;2023-05-07T01:50:11;41.90;;;37.60;;
57319;SDS011;43158;51.026;18.190;2023-05-07T01:52:38;44.30;;;39.70;;
57319;SDS011;43158;51.026;18.190;2023-05-07T01:55:05;40.40;;;36.20;;
57319;SDS011;43158;51.026;18.190;2023-05-07T01:57:32;43.50;;;39.00;;
57319;SDS011;43158;51.026;18.190;2023-05-07T02:00:00;41.50;;;37.40;;
57319;SDS011;43158;51.026;18.190;2023-05-07T02:02:26;44.50;;;38.90;;
57319;SDS011;43158;51.026;18.190;2023-05-07T02:04:53;49.60;;;44.40;;
57319;SDS011;43158;51.026;18.190;2023-05-07T02:07:20;48.10;;;42.70;;
57319;SDS011;43158;51.026;18.190;2023-05-07T02:09:47;45.90;;;40.70;;
57319;SDS011;43158;51.026;18.190;2023-05-07T02:12:14;43.50;;;38.70;;
57319;SDS011;43158;51.026;18.190;2023-05-07T02:14:42;42.80;;;37.90;;
57319;SDS011;43158;51.026;18.190;2023-05-07T02:17:09;49.50;;;44.50;;
57319;SDS011;43158;51.026;18.190;2023-05-07T02:19:36;45.10;;;40.50;;
57319;SDS011;43158;51.026;18.190;2023-05-07T02:22:03;47.80;;;42.70;;
57319;SDS011;43158;51.026;18.190;2023-05-07T02:24:31;47.40;;;42.40;;
57319;SDS011;43158;51.026;18.190;2023-05-07T02:26:58;44.50;;;40.00;;
57319;SDS011;43158;51.026;18.190;2023-05-07T02:29:25;46.20;;;41.40;;
57319;SDS011;43158;51.026;18.190;2023-05-07T02:31:52;40.90;;;36.70;;
57319;SDS011;43158;51.026;18.190;2023-05-07T02:34:20;42.60;;;38.20;;
57319;SDS011;43158;51.026;18.190;2023-05-07T02:36:47;40.10;;;35.70;;
57319;SDS011;43158;51.026;18.190;2023-05-07T02:39:14;39.20;;;35.40;;
57319;SDS011;43158;51.026;18.190;2023-05-07T02:41:42;37.40;;;33.80;;
57319;SDS011;43158;51.026;18.190;2023-05-07T02:44:09;40.00;;;36.00;;
57319;SDS011;43158;51.026;18.190;2023-05-07T02:46:36;34.30;;;30.70;;
57319;SDS011;43158;51.026;18.190;2023-05-07T02:49:03;38.00;;;34.00;;
57319;SDS011;43158;51.026;18.190;2023-05-07T02:51:30;41.20;;;37.10;;
57319;SDS011;43158;51.026;18.190;2023-05-07T02:53:57;47.40;;;42.50;;
57319;SDS011;43158;51.026;18.190;2023-05-07T02:56:25;45.50;;;39.90;;
57319;SDS011;43158;51.026;18.190;2023-05-07T02:58:52;47.10;;;41.20;;
57319;SDS011;43158;51.026;18.190;2023-05-07T03:01:19;50.70;;;43.40;;
57319;SDS011;43158;51.026;18.190;2023-05-07T03:03:46;44.30;;;39.50;;
57319;SDS011;43158;51.026;18.190;2023-05-07T03:06:13;47.40;;;41.60;;
57319;SDS011;43158;51.026;18.190;2023-05-07T03:08:41;52.80;;;44.00;;
57319;SDS011;43158;51.026;18.190;2023-05-07T03:11:08;43.70;;;38.70;;
57319;SDS011;43158;51.026;18.190;2023-05-07T03:13:36;42.20;;;37.40;;
57319;SDS011;43158;51.026;18.190;2023-05-07T03:16:02;40.30;;;35.90;;
57319;SDS011;43158;51.026;18.190;2023-05-07T03:18:30;35.00;;;31.30;;
57319;SDS011;43158;51.026;18.190;2023-05-07T03:20:58;32.00;;;28.80;;
57319;SDS011;43158;51.026;18.190;2023-05-07T03:23:25;33.80;;;30.30;;
57319;SDS011;43158;51.026;18.190;2023-05-07T03:25:53;31.00;;;27.80;;
57319;SDS011;43158;51.026;18.190;2023-05-07T03:28:20;36.00;;;32.60;;
57319;SDS011;43158;51.026;18.190;2023-05-07T03:30:47;33.90;;;30.40;;
57319;SDS011;43158;51.026;18.190;2023-05-07T03:33:14;33.20;;;30.00;;
57319;SDS011;43158;51.026;18.190;2023-05-07T03:35:43;34.90;;;31.40;;
57319;SDS011;43158;51.026;18.190;2023-05-07T03:38:10;31.80;;;28.70;;
57319;SDS011;43158;51.026;18.190;2023-05-07T03:40:38;32.80;;;29.40;;
57319;SDS011;43158;51.026;18.190;2023-05-07T03:43:05;31.90;;;28.80;;
57319;SDS011;43158;51.026;18.190;2023-05-07T03:45:32;33.50;;;30.20;;
57319;SDS011;43158;51.026;18.190;2023-05-07T03:47:59;35.80;;;31.80;;
57319;SDS011;43158;51.026;18.190;2023-05-07T03:50:26;39.40;;;35.60;;
57319;SDS011;43158;51.026;18.190;2023-05-07T03:52:53;36.00;;;31.30;;
57319;SDS011;43158;51.026;18.190;2023-05-07T03:55:19;37.90;;;34.00;;
57319;SDS011;43158;51.026;18.190;2023-05-07T03:57:46;37.30;;;33.30;;
57319;SDS011;43158;51.026;18.190;2023-05-07T04:00:13;38.10;;;34.00;;
57319;SDS011;43158;51.026;18.190;2023-05-07T04:02:41;41.40;;;36.30;;
57319;SDS011;43158;51.026;18.190;2023-05-07T04:05:08;38.70;;;34.10;;
57319;SDS011;43158;51.026;18.190;2023-05-07T04:07:35;38.60;;;34.60;;
57319;SDS011;43158;51.026;18.190;2023-05-07T04:10:02;37.40;;;33.50;;
57319;SDS011;43158;51.026;18.190;2023-05-07T04:12:29;34.90;;;31.30;;
57319;SDS011;43158;51.026;18.190;2023-05-07T04:14:56;36.80;;;33.10;;
57319;SDS011;43158;51.026;18.190;2023-05-07T04:17:23;34.40;;;30.30;;
57319;SDS011;43158;51.026;18.190;2023-05-07T04:19:51;31.90;;;28.20;;
57319;SDS011;43158;51.026;18.190;2023-05-07T04:22:18;34.40;;;30.70;;
57319;SDS011;43158;51.026;18.190;2023-05-07T04:24:45;28.60;;;25.60;;
57319;SDS011;43158;51.026;18.190;2023-05-07T04:27:12;25.60;;;23.10;;
57319;SDS011;43158;51.026;18.190;2023-05-07T04:29:39;27.70;;;25.20;;
57319;SDS011;43158;51.026;18.190;2023-05-07T04:32:09;27.20;;;24.60;;
57319;SDS011;43158;51.026;18.190;2023-05-07T04:34:36;24.90;;;22.60;;
57319;SDS011;43158;51.026;18.190;2023-05-07T04:37:03;26.50;;;23.80;;
57319;SDS011;43158;51.026;18.190;2023-05-07T04:39:30;24.40;;;22.20;;
57319;SDS011;43158;51.026;18.190;2023-05-07T04:42:01;25.60;;;23.40;;
57319;SDS011;43158;51.026;18.190;2023-05-07T04:44:29;25.40;;;23.20;;
57319;SDS011;43158;51.026;18.190;2023-05-07T04:46:57;25.90;;;23.50;;
57319;SDS011;43158;51.026;18.190;2023-05-07T04:49:24;27.70;;;25.10;;
57319;SDS011;43158;51.026;18.190;2023-05-07T04:51:52;26.50;;;23.80;;
57319;SDS011;43158;51.026;18.190;2023-05-07T04:54:19;25.00;;;22.70;;
57319;SDS011;43158;51.026;18.190;2023-05-07T04:56:46;30.20;;;26.00;;
57319;SDS011;43158;51.026;18.190;2023-05-07T04:59:13;30.50;;;27.40;;
57319;SDS011;43158;51.026;18.190;2023-05-07T05:01:40;36.90;;;33.20;;
57319;SDS011;43158;51.026;18.190;2023-05-07T05:04:07;40.60;;;36.70;;
57319;SDS011;43158;51.026;18.190;2023-05-07T05:06:33;40.60;;;36.50;;
57319;SDS011;43158;51.026;18.190;2023-05-07T05:08:59;38.70;;;34.70;;
57319;SDS011;43158;51.026;18.190;2023-05-07T05:11:26;40.00;;;36.00;;
57319;SDS011;43158;51.026;18.190;2023-05-07T05:13:53;40.10;;;35.90;;
57319;SDS011;43158;51.026;18.190;2023-05-07T05:16:19;39.00;;;34.90;;
57319;SDS011;43158;51.026;18.190;2023-05-07T05:18:45;37.80;;;34.10;;
57319;SDS011;43158;51.026;18.190;2023-05-07T05:21:12;38.80;;;34.70;;
57319;SDS011;43158;51.026;18.190;2023-05-07T05:23:38;34.80;;;31.60;;
57319;SDS011;43158;51.026;18.190;2023-05-07T05:26:05;34.00;;;30.90;;
57319;SDS011;43158;51.026;18.190;2023-05-07T05:28:31;31.40;;;28.20;;
57319;SDS011;43158;51.026;18.190;2023-05-07T05:30:57;29.50;;;26.60;;
57319;SDS011;43158;51.026;18.190;2023-05-07T05:33:24;30.10;;;26.90;;
57319;SDS011;43158;51.026;18.190;2023-05-07T05:35:50;28.00;;;25.50;;
57319;SDS011;43158;51.026;18.190;2023-05-07T05:38:16;25.90;;;23.50;;
57319;SDS011;43158;51.026;18.190;2023-05-07T05:40:43;26.20;;;23.60;;
57319;SDS011;43158;51.026;18.190;2023-05-07T05:43:09;28.50;;;25.80;;
57319;SDS011;43158;51.026;18.190;2023-05-07T05:45:36;27.10;;;24.40;;
57319;SDS011;43158;51.026;18.190;2023-05-07T05:48:02;28.70;;;25.60;;
57319;SDS011;43158;51.026;18.190;2023-05-07T05:50:34;27.40;;;25.10;;
57319;SDS011;43158;51.026;18.190;2023-05-07T05:53:06;27.60;;;25.00;;
57319;SDS011;43158;51.026;18.190;2023-05-07T05:55:33;35.10;;;31.00;;
57319;SDS011;43158;51.026;18.190;2023-05-07T05:58:00;46.60;;;39.50;;
57319;SDS011;43158;51.026;18.190;2023-05-07T06:00:28;40.80;;;36.50;;
57319;SDS011;43158;51.026;18.190;2023-05-07T06:02:55;40.00;;;35.90;;
57319;SDS011;43158;51.026;18.190;2023-05-07T06:05:23;40.80;;;36.40;;
57319;SDS011;43158;51.026;18.190;2023-05-07T06:07:50;36.40;;;32.40;;
57319;SDS011;43158;51.026;18.190;2023-05-07T06:10:17;39.60;;;35.50;;
57319;SDS011;43158;51.026;18.190;2023-05-07T06:12:45;32.50;;;28.80;;
57319;SDS011;43158;51.026;18.190;2023-05-07T06:15:13;33.20;;;29.60;;
57319;SDS011;43158;51.026;18.190;2023-05-07T06:17:41;32.50;;;29.20;;
57319;SDS011;43158;51.026;18.190;2023-05-07T06:20:08;35.30;;;31.70;;
57319;SDS011;43158;51.026;18.190;2023-05-07T06:22:36;33.40;;;30.00;;
57319;SDS011;43158;51.026;18.190;2023-05-07T06:25:04;35.70;;;31.00;;
57319;SDS011;43158;51.026;18.190;2023-05-07T06:27:32;37.20;;;33.50;;
57319;SDS011;43158;51.026;18.190;2023-05-07T06:29:59;38.30;;;34.20;;
57319;SDS011;43158;51.026;18.190;2023-05-07T06:32:27;41.30;;;35.80;;
57319;SDS011;43158;51.026;18.190;2023-05-07T06:34:54;45.10;;;40.10;;
57319;SDS011;43158;51.026;18.190;2023-05-07T06:37:20;54.50;;;40.30;;
57319;SDS011;43158;51.026;18.190;2023-05-07T06:39:52;44.10;;;38.00;;
57319;SDS011;43158;51.026;18.190;2023-05-07T06:42:20;43.00;;;36.80;;
57319;SDS011;43158;51.026;18.190;2023-05-07T06:44:47;43.90;;;35.40;;
57319;SDS011;43158;51.026;18.190;2023-05-07T06:47:15;40.00;;;35.30;;
57319;SDS011;43158;51.026;18.190;2023-05-07T06:49:42;41.60;;;36.40;;
57319;SDS011;43158;51.026;18.190;2023-05-07T06:52:10;37.00;;;33.00;;
57319;SDS011;43158;51.026;18.190;2023-05-07T06:54:38;41.70;;;34.40;;
57319;SDS011;43158;51.026;18.190;2023-05-07T06:57:06;42.90;;;34.10;;
57319;SDS011;43158;51.026;18.190;2023-05-07T06:59:34;41.90;;;33.70;;
57319;SDS011;43158;51.026;18.190;2023-05-07T07:02:02;34.50;;;30.80;;
57319;SDS011;43158;51.026;18.190;2023-05-07T07:04:30;36.70;;;32.70;;
57319;SDS011;43158;51.026;18.190;2023-05-07T07:06:58;38.40;;;33.80;;
57319;SDS011;43158;51.026;18.190;2023-05-07T07:09:25;37.80;;;33.20;;
57319;SDS011;43158;51.026;18.190;2023-05-07T07:11:53;37.30;;;31.60;;
57319;SDS011;43158;51.026;18.190;2023-05-07T07:14:20;39.10;;;34.40;;
57319;SDS011;43158;51.026;18.190;2023-05-07T07:16:47;40.80;;;36.40;;
57319;SDS011;43158;51.026;18.190;2023-05-07T07:19:14;39.50;;;35.30;;
57319;SDS011;43158;51.026;18.190;2023-05-07T07:21:42;39.60;;;35.10;;
57319;SDS011;43158;51.026;18.190;2023-05-07T07:24:09;37.30;;;33.10;;
57319;SDS011;43158;51.026;18.190;2023-05-07T07:26:36;37.50;;;32.60;;
57319;SDS011;43158;51.026;18.190;2023-05-07T07:29:04;43.50;;;34.50;;
57319;SDS011;43158;51.026;18.190;2023-05-07T07:31:31;37.40;;;30.90;;
57319;SDS011;43158;51.026;18.190;2023-05-07T07:33:58;38.80;;;32.60;;
57319;SDS011;43158;51.026;18.190;2023-05-07T07:36:25;36.10;;;32.50;;
57319;SDS011;43158;51.026;18.190;2023-05-07T07:38:53;39.40;;;35.10;;
57319;SDS011;43158;51.026;18.190;2023-05-07T07:41:20;41.40;;;33.60;;
57319;SDS011;43158;51.026;18.190;2023-05-07T07:43:48;41.70;;;36.70;;
57319;SDS011;43158;51.026;18.190;2023-05-07T07:46:15;36.30;;;32.60;;
57319;SDS011;43158;51.026;18.190;2023-05-07T07:48:42;36.70;;;32.90;;
57319;SDS011;43158;51.026;18.190;2023-05-07T07:51:09;38.20;;;34.30;;
57319;SDS011;43158;51.026;18.190;2023-05-07T07:53:36;45.50;;;36.80;;
57319;SDS011;43158;51.026;18.190;2023-05-07T07:56:03;44.50;;;35.50;;
57319;SDS011;43158;51.026;18.190;2023-05-07T07:58:30;39.60;;;35.30;;
57319;SDS011;43158;51.026;18.190;2023-05-07T08:00:56;39.00;;;33.50;;
57319;SDS011;43158;51.026;18.190;2023-05-07T08:03:23;43.40;;;35.50;;
57319;SDS011;43158;51.026;18.190;2023-05-07T08:05:49;38.90;;;34.90;;
57319;SDS011;43158;51.026;18.190;2023-05-07T08:08:16;40.00;;;33.80;;
57319;SDS011;43158;51.026;18.190;2023-05-07T08:10:43;37.90;;;33.60;;
57319;SDS011;43158;51.026;18.190;2023-05-07T08:13:10;35.60;;;32.00;;
57319;SDS011;43158;51.026;18.190;2023-05-07T08:15:36;37.10;;;31.20;;
57319;SDS011;43158;51.026;18.190;2023-05-07T08:18:02;32.80;;;29.20;;
57319;SDS011;43158;51.026;18.190;2023-05-07T08:20:29;32.80;;;29.20;;
57319;SDS011;43158;51.026;18.190;2023-05-07T08:22:55;35.00;;;31.10;;
57319;SDS011;43158;51.026;18.190;2023-05-07T08:25:21;35.10;;;30.80;;
57319;SDS011;43158;51.026;18.190;2023-05-07T08:27:48;36.80;;;33.10;;
57319;SDS011;43158;51.026;18.190;2023-05-07T08:30:15;33.30;;;28.90;;
57319;SDS011;43158;51.026;18.190;2023-05-07T08:32:42;34.20;;;30.50;;
57319;SDS011;43158;51.026;18.190;2023-05-07T08:35:09;40.00;;;29.00;;
57319;SDS011;43158;51.026;18.190;2023-05-07T08:37:40;30.00;;;26.80;;
57319;SDS011;43158;51.026;18.190;2023-05-07T08:40:07;29.40;;;26.50;;
57319;SDS011;43158;51.026;18.190;2023-05-07T08:42:38;34.20;;;30.90;;
57319;SDS011;43158;51.026;18.190;2023-05-07T08:45:08;34.80;;;31.10;;
57319;SDS011;43158;51.026;18.190;2023-05-07T08:50:29;34.30;;;30.60;;
57319;SDS011;43158;51.026;18.190;2023-05-07T08:52:56;34.00;;;30.80;;
57319;SDS011;43158;51.026;18.190;2023-05-07T08:55:23;34.40;;;30.90;;
57319;SDS011;43158;51.026;18.190;2023-05-07T08:57:50;34.70;;;31.40;;
57319;SDS011;43158;51.026;18.190;2023-05-07T09:00:19;36.20;;;32.50;;
57319;SDS011;43158;51.026;18.190;2023-05-07T09:02:46;31.70;;;28.80;;
57319;SDS011;43158;51.026;18.190;2023-05-07T09:05:12;33.60;;;30.30;;
57319;SDS011;43158;51.026;18.190;2023-05-07T09:07:39;32.10;;;29.10;;
57319;SDS011;43158;51.026;18.190;2023-05-07T09:10:06;34.20;;;30.90;;
57319;SDS011;43158;51.026;18.190;2023-05-07T09:12:34;31.90;;;28.10;;
57319;SDS011;43158;51.026;18.190;2023-05-07T09:15:02;29.50;;;26.60;;
57319;SDS011;43158;51.026;18.190;2023-05-07T09:17:34;33.60;;;30.20;;
57319;SDS011;43158;51.026;18.190;2023-05-07T09:20:04;33.50;;;29.70;;
57319;SDS011;43158;51.026;18.190;2023-05-07T09:22:32;29.90;;;26.90;;
57319;SDS011;43158;51.026;18.190;2023-05-07T09:24:59;30.10;;;26.60;;
57319;SDS011;43158;51.026;18.190;2023-05-07T09:27:27;32.00;;;28.60;;
57319;SDS011;43158;51.026;18.190;2023-05-07T09:29:59;30.30;;;27.10;;
57319;SDS011;43158;51.026;18.190;2023-05-07T09:32:34;33.20;;;27.40;;
57319;SDS011;43158;51.026;18.190;2023-05-07T09:35:04;29.00;;;26.20;;
57319;SDS011;43158;51.026;18.190;2023-05-07T09:37:36;28.90;;;25.80;;
57319;SDS011;43158;51.026;18.190;2023-05-07T09:40:03;30.50;;;24.40;;
57319;SDS011;43158;51.026;18.190;2023-05-07T09:42:30;32.70;;;27.90;;
57319;SDS011;43158;51.026;18.190;2023-05-07T09:44:56;27.70;;;24.80;;
57319;SDS011;43158;51.026;18.190;2023-05-07T09:47:23;28.40;;;25.30;;
57319;SDS011;43158;51.026;18.190;2023-05-07T09:49:52;31.70;;;28.60;;
57319;SDS011;43158;51.026;18.190;2023-05-07T09:52:23;31.40;;;28.30;;
57319;SDS011;43158;51.026;18.190;2023-05-07T09:54:50;35.40;;;31.80;;
57319;SDS011;43158;51.026;18.190;2023-05-07T09:57:23;32.70;;;25.40;;
57319;SDS011;43158;51.026;18.190;2023-05-07T09:59:52;32.80;;;25.30;;
57319;SDS011;43158;51.026;18.190;2023-05-07T10:02:20;28.00;;;23.90;;
57319;SDS011;43158;51.026;18.190;2023-05-07T10:04:48;29.60;;;23.80;;
57319;SDS011;43158;51.026;18.190;2023-05-07T10:07:14;29.40;;;26.40;;
57319;SDS011;43158;51.026;18.190;2023-05-07T10:09:41;29.00;;;24.30;;
57319;SDS011;43158;51.026;18.190;2023-05-07T10:12:09;28.90;;;25.90;;
57319;SDS011;43158;51.026;18.190;2023-05-07T10:14:36;27.20;;;24.20;;
57319;SDS011;43158;51.026;18.190;2023-05-07T10:17:03;29.40;;;26.30;;
57319;SDS011;43158;51.026;18.190;2023-05-07T10:19:29;29.40;;;25.90;;
57319;SDS011;43158;51.026;18.190;2023-05-07T10:21:56;33.60;;;27.00;;
57319;SDS011;43158;51.026;18.190;2023-05-07T10:24:29;26.50;;;23.60;;
57319;SDS011;43158;51.026;18.190;2023-05-07T10:27:07;28.50;;;25.20;;
57319;SDS011;43158;51.026;18.190;2023-05-07T10:29:46;28.10;;;24.10;;
57319;SDS011;43158;51.026;18.190;2023-05-07T10:32:37;27.10;;;24.40;;
57319;SDS011;43158;51.026;18.190;2023-05-07T10:35:09;27.10;;;23.70;;
57319;SDS011;43158;51.026;18.190;2023-05-07T10:37:42;62.80;;;56.00;;
57319;SDS011;43158;51.026;18.190;2023-05-07T10:40:10;31.60;;;27.70;;
57319;SDS011;43158;51.026;18.190;2023-05-07T10:42:53;28.00;;;25.20;;
57319;SDS011;43158;51.026;18.190;2023-05-07T10:45:21;43.50;;;39.20;;
57319;SDS011;43158;51.026;18.190;2023-05-07T10:50:46;25.70;;;23.10;;
57319;SDS011;43158;51.026;18.190;2023-05-07T10:55:52;31.20;;;27.70;;
57319;SDS011;43158;51.026;18.190;2023-05-07T10:58:49;27.70;;;22.20;;
57319;SDS011;43158;51.026;18.190;2023-05-07T11:01:19;69.70;;;57.30;;
57319;SDS011;43158;51.026;18.190;2023-05-07T11:04:15;33.70;;;27.60;;
57319;SDS011;43158;51.026;18.190;2023-05-07T11:06:59;26.20;;;23.00;;
57319;SDS011;43158;51.026;18.190;2023-05-07T11:15:05;27.90;;;25.00;;
57319;SDS011;43158;51.026;18.190;2023-05-07T11:17:34;42.40;;;38.40;;
57319;SDS011;43158;51.026;18.190;2023-05-07T11:28:42;37.10;;;29.20;;
57319;SDS011;43158;51.026;18.190;2023-05-07T11:31:10;35.90;;;31.60;;
57319;SDS011;43158;51.026;18.190;2023-05-07T11:33:37;35.00;;;29.20;;
57319;SDS011;43158;51.026;18.190;2023-05-07T11:36:05;30.80;;;27.50;;
57319;SDS011;43158;51.026;18.190;2023-05-07T11:38:35;35.80;;;32.00;;
57319;SDS011;43158;51.026;18.190;2023-05-07T11:41:07;41.30;;;36.80;;
57319;SDS011;43158;51.026;18.190;2023-05-07T11:43:34;34.30;;;30.80;;
57319;SDS011;43158;51.026;18.190;2023-05-07T11:46:07;31.10;;;27.90;;
57319;SDS011;43158;51.026;18.190;2023-05-07T11:48:35;35.10;;;30.30;;
57319;SDS011;43158;51.026;18.190;2023-05-07T11:51:02;34.80;;;29.60;;
57319;SDS011;43158;51.026;18.190;2023-05-07T11:53:37;44.80;;;40.40;;
57319;SDS011;43158;51.026;18.190;2023-05-07T11:56:08;75.20;;;64.80;;
57319;SDS011;43158;51.026;18.190;2023-05-07T11:58:35;38.20;;;34.00;;
57319;SDS011;43158;51.026;18.190;2023-05-07T12:01:01;46.80;;;41.70;;
57319;SDS011;43158;51.026;18.190;2023-05-07T12:03:28;43.90;;;39.30;;
57319;SDS011;43158;51.026;18.190;2023-05-07T12:05:54;310.20;;;279.40;;
57319;SDS011;43158;51.026;18.190;2023-05-07T12:08:21;116.30;;;105.60;;
57319;SDS011;43158;51.026;18.190;2023-05-07T12:10:48;110.40;;;100.40;;
57319;SDS011;43158;51.026;18.190;2023-05-07T12:13:16;92.70;;;85.40;;
57319;SDS011;43158;51.026;18.190;2023-05-07T12:15:46;79.60;;;72.20;;
57319;SDS011;43158;51.026;18.190;2023-05-07T12:18:12;131.30;;;119.80;;
57319;SDS011;43158;51.026;18.190;2023-05-07T12:20:39;77.90;;;71.00;;
57319;SDS011;43158;51.026;18.190;2023-05-07T12:23:06;112.30;;;102.40;;
57319;SDS011;43158;51.026;18.190;2023-05-07T12:25:38;204.80;;;187.90;;
57319;SDS011;43158;51.026;18.190;2023-05-07T12:28:07;173.60;;;145.50;;
57319;SDS011;43158;51.026;18.190;2023-05-07T12:30:37;101.80;;;84.60;;
57319;SDS011;43158;51.026;18.190;2023-05-07T12:33:05;88.00;;;79.80;;
57319;SDS011;43158;51.026;18.190;2023-05-07T12:35:36;179.10;;;141.90;;
57319;SDS011;43158;51.026;18.190;2023-05-07T12:38:08;113.00;;;103.30;;
57319;SDS011;43158;51.026;18.190;2023-05-07T12:40:43;164.80;;;150.30;;
57319;SDS011;43158;51.026;18.190;2023-05-07T12:43:19;156.40;;;143.10;;
57319;SDS011;43158;51.026;18.190;2023-05-07T12:45:47;106.80;;;95.40;;
57319;SDS011;43158;51.026;18.190;2023-05-07T12:48:14;1174.50;;;867.30;;
57319;SDS011;43158;51.026;18.190;2023-05-07T12:50:41;453.30;;;406.90;;
57319;SDS011;43158;51.026;18.190;2023-05-07T12:53:09;840.10;;;747.20;;
57319;SDS011;43158;51.026;18.190;2023-05-07T12:55:41;494.20;;;451.70;;
57319;SDS011;43158;51.026;18.190;2023-05-07T12:58:08;252.40;;;232.70;;
57319;SDS011;43158;51.026;18.190;2023-05-07T13:00:38;156.70;;;143.00;;
57319;SDS011;43158;51.026;18.190;2023-05-07T13:03:04;253.70;;;228.50;;
57319;SDS011;43158;51.026;18.190;2023-05-07T13:05:31;175.90;;;150.30;;
57319;SDS011;43158;51.026;18.190;2023-05-07T13:07:58;257.20;;;223.60;;
57319;SDS011;43158;51.026;18.190;2023-05-07T13:10:24;306.60;;;272.80;;
57319;SDS011;43158;51.026;18.190;2023-05-07T13:12:51;128.10;;;116.60;;
57319;SDS011;43158;51.026;18.190;2023-05-07T13:15:18;119.20;;;102.90;;
57319;SDS011;43158;51.026;18.190;2023-05-07T13:17:45;174.30;;;159.30;;
57319;SDS011;43158;51.026;18.190;2023-05-07T13:20:11;93.60;;;79.30;;
57319;SDS011;43158;51.026;18.190;2023-05-07T13:22:41;129.60;;;117.50;;
57319;SDS011;43158;51.026;18.190;2023-05-07T13:25:07;120.60;;;108.80;;
57319;SDS011;43158;51.026;18.190;2023-05-07T13:27:34;94.70;;;85.40;;
57319;SDS011;43158;51.026;18.190;2023-05-07T13:30:03;128.70;;;117.10;;
57319;SDS011;43158;51.026;18.190;2023-05-07T13:32:30;145.30;;;133.30;;
57319;SDS011;43158;51.026;18.190;2023-05-07T13:34:57;114.20;;;103.70;;
57319;SDS011;43158;51.026;18.190;2023-05-07T13:37:24;120.90;;;110.00;;
57319;SDS011;43158;51.026;18.190;2023-05-07T13:39:50;98.70;;;89.60;;
57319;SDS011;43158;51.026;18.190;2023-05-07T13:42:17;97.30;;;88.20;;
57319;SDS011;43158;51.026;18.190;2023-05-07T13:44:43;103.30;;;94.40;;
57319;SDS011;43158;51.026;18.190;2023-05-07T13:47:10;93.10;;;85.20;;
57319;SDS011;43158;51.026;18.190;2023-05-07T13:49:36;116.90;;;106.30;;
57319;SDS011;43158;51.026;18.190;2023-05-07T13:52:03;123.10;;;111.30;;
57319;SDS011;43158;51.026;18.190;2023-05-07T13:54:29;112.90;;;100.70;;
57319;SDS011;43158;51.026;18.190;2023-05-07T13:56:55;116.60;;;104.90;;
57319;SDS011;43158;51.026;18.190;2023-05-07T18:35:43;46.90;;;42.10;;
57319;SDS011;43158;51.026;18.190;2023-05-07T18:38:09;36.90;;;33.30;;
57319;SDS011;43158;51.026;18.190;2023-05-07T18:40:35;35.90;;;32.40;;
57319;SDS011;43158;51.026;18.190;2023-05-07T18:43:02;53.30;;;47.70;;
57319;SDS011;43158;51.026;18.190;2023-05-07T18:45:32;39.50;;;35.60;;
57319;SDS011;43158;51.026;18.190;2023-05-07T18:47:59;35.60;;;32.40;;
57319;SDS011;43158;51.026;18.190;2023-05-07T18:50:25;39.70;;;35.90;;
57319;SDS011;43158;51.026;18.190;2023-05-07T18:52:52;35.30;;;31.70;;
57319;SDS011;43158;51.026;18.190;2023-05-07T18:55:19;33.70;;;30.40;;
57319;SDS011;43158;51.026;18.190;2023-05-07T18:57:47;46.60;;;41.90;;
57319;SDS011;43158;51.026;18.190;2023-05-07T19:00:14;60.40;;;55.10;;
57319;SDS011;43158;51.026;18.190;2023-05-07T19:02:41;37.80;;;34.40;;
57319;SDS011;43158;51.026;18.190;2023-05-07T19:05:09;55.90;;;37.80;;
57319;SDS011;43158;51.026;18.190;2023-05-07T19:07:36;33.10;;;29.80;;
57319;SDS011;43158;51.026;18.190;2023-05-07T19:10:03;53.80;;;43.00;;